Time;durP1;ratioP1;P1;durP2;ratioP2;P2;SDS_P1;SDS_P2;PMS_P1;PMS_P2;Temp;Humidity;BMP_temperature;BMP_pressure;BME280_temperature;BME280_humidity;BME280_pressure;Samples;Min_cycle;Max_cycle;Signal;HPM_P1;HPM_P2
2023/10/21 00:00:50;;;;;;;40.35;22.92;;;8.70;99.90;;;;;;5014397;28;20183;-81
2023/10/21 00:03:15;;;;;;;43.60;24.08;;;8.70;99.90;;;;;;5014629;28;20186;-80
2023/10/21 00:05:41;;;;;;;41.95;24.23;;;8.80;99.90;;;;;;5019745;28;20234;-81
2023/10/21 00:08:07;;;;;;;46.35;24.15;;;8.80;99.90;;;;;;5014273;28;20190;-80
2023/10/21 00:10:32;;;;;;;42.38;23.40;;;8.80;99.90;;;;;;5014442;28;20178;-80
2023/10/21 00:12:58;;;;;;;42.15;22.95;;;8.80;99.90;;;;;;5013925;28;20183;-81
2023/10/21 00:15:24;;;;;;;47.43;23.93;;;8.90;99.90;;;;;;5014174;28;20543;-80
2023/10/21 00:17:49;;;;;;;46.95;22.95;;;8.90;99.90;;;;;;5014244;28;20186;-80
2023/10/21 00:20:15;;;;;;;41.27;23.13;;;8.90;99.90;;;;;;5014081;28;20191;-81
2023/10/21 00:22:41;;;;;;;46.17;23.85;;;8.90;99.90;;;;;;5014325;28;20207;-81
2023/10/21 00:25:07;;;;;;;42.73;22.27;;;8.80;99.90;;;;;;5014060;28;20183;-80
2023/10/21 00:27:33;;;;;;;54.13;23.83;;;8.80;99.90;;;;;;5013747;28;20175;-81
2023/10/21 00:29:58;;;;;;;46.10;21.92;;;8.80;99.90;;;;;;5022078;28;20702;-80
2023/10/21 00:32:24;;;;;;;47.30;23.17;;;8.80;99.90;;;;;;5014025;28;20175;-81
2023/10/21 00:34:50;;;;;;;41.50;21.87;;;8.80;99.90;;;;;;5019774;28;20191;-80
2023/10/21 00:37:15;;;;;;;49.97;23.35;;;8.80;99.90;;;;;;5013923;28;20293;-80
2023/10/21 00:39:42;;;;;;;44.60;22.47;;;8.70;99.90;;;;;;5014054;28;20621;-81
2023/10/21 00:42:08;;;;;;;48.93;24.23;;;8.70;99.90;;;;;;5013876;28;20266;-80
2023/10/21 00:44:34;;;;;;;55.90;23.90;;;8.70;99.90;;;;;;5013711;28;20175;-79
2023/10/21 00:47:00;;;;;;;54.90;24.00;;;8.70;99.90;;;;;;5013511;28;20210;-80
2023/10/21 00:49:31;;;;;;;52.10;22.88;;;8.80;99.90;;;;;;5014002;28;20233;-80
2023/10/21 00:51:57;;;;;;;49.65;23.70;;;8.80;99.90;;;;;;5013909;28;20644;-80
2023/10/21 00:54:26;;;;;;;49.33;22.90;;;8.80;99.90;;;;;;5016719;28;20190;-81
2023/10/21 00:56:53;;;;;;;45.72;22.38;;;8.80;99.90;;;;;;5017530;28;20281;-81
2023/10/21 00:59:19;;;;;;;49.65;24.05;;;8.80;99.90;;;;;;5017458;28;20190;-81
2023/10/21 01:01:46;;;;;;;48.22;22.65;;;8.90;99.90;;;;;;5018078;28;20179;-81
2023/10/21 01:04:13;;;;;;;56.20;23.25;;;8.90;99.90;;;;;;5023666;28;20186;-81
2023/10/21 01:06:39;;;;;;;41.50;23.53;;;8.90;99.90;;;;;;5017508;28;20333;-80
2023/10/21 01:09:04;;;;;;;50.43;22.73;;;8.80;99.90;;;;;;5026960;28;20266;-80
2023/10/21 01:11:30;;;;;;;47.25;22.65;;;8.80;99.90;;;;;;5450979;22;20233;-90
2023/10/21 01:13:56;;;;;;;41.88;22.45;;;8.80;99.90;;;;;;5016565;28;20187;-83
2023/10/21 01:16:22;;;;;;;54.08;22.27;;;8.80;99.90;;;;;;5016660;28;20218;-80
2023/10/21 01:18:48;;;;;;;45.05;21.73;;;8.90;99.90;;;;;;5017990;28;20271;-81
2023/10/21 01:21:14;;;;;;;43.80;21.88;;;8.90;99.90;;;;;;5049429;28;20369;-80
2023/10/21 01:23:40;;;;;;;55.67;22.27;;;8.90;99.90;;;;;;5049671;28;20646;-80
2023/10/21 01:26:07;;;;;;;48.28;21.90;;;8.90;99.90;;;;;;5025325;28;20210;-80
2023/10/21 01:28:33;;;;;;;37.80;22.30;;;8.90;99.90;;;;;;5016934;28;20191;-80
2023/10/21 01:31:00;;;;;;;32.60;20.98;;;8.90;99.90;;;;;;5049255;28;20183;-80
2023/10/21 01:33:26;;;;;;;42.67;22.55;;;8.90;99.90;;;;;;5049087;28;20191;-79
2023/10/21 01:35:52;;;;;;;43.78;21.40;;;8.80;99.90;;;;;;5048780;28;20617;-80
2023/10/21 01:38:18;;;;;;;39.20;21.63;;;8.90;99.90;;;;;;5049139;28;20195;-81
2023/10/21 01:40:45;;;;;;;42.38;21.63;;;8.90;99.90;;;;;;5049238;28;20211;-78
2023/10/21 01:43:10;;;;;;;40.55;22.17;;;8.90;99.90;;;;;;5032617;28;20205;-81
2023/10/21 01:45:37;;;;;;;41.63;22.73;;;8.90;99.90;;;;;;5048939;28;20712;-80
2023/10/21 01:48:04;;;;;;;34.22;21.40;;;9.00;99.90;;;;;;5049084;28;20195;-79
2023/10/21 01:50:30;;;;;;;35.27;20.97;;;8.90;99.90;;;;;;5021763;28;20209;-80
2023/10/21 01:52:57;;;;;;;33.55;20.65;;;8.90;99.90;;;;;;5019354;28;20222;-80
2023/10/21 01:55:23;;;;;;;33.50;21.48;;;8.90;99.90;;;;;;5017062;28;20263;-90
2023/10/21 01:57:48;;;;;;;34.90;20.83;;;8.90;99.90;;;;;;5048713;28;20278;-80
2023/10/21 02:00:20;;;;;;;33.33;20.90;;;9.00;99.90;;;;;;5019579;28;20183;-80
2023/10/21 02:02:54;;;;;;;35.83;20.35;;;9.00;99.90;;;;;;5051932;28;20187;-81
2023/10/21 02:05:22;;;;;;;35.25;20.70;;;9.00;99.90;;;;;;5051107;28;20186;-81
2023/10/21 02:07:48;;;;;;;34.97;20.52;;;9.00;99.90;;;;;;5052159;28;20186;-82
2023/10/21 02:10:14;;;;;;;33.93;20.90;;;9.00;99.90;;;;;;5044942;28;20190;-91
2023/10/21 02:12:40;;;;;;;32.42;20.65;;;9.00;99.90;;;;;;5040751;28;20566;-91
2023/10/21 02:15:14;;;;;;;32.00;19.85;;;9.00;99.90;;;;;;5029450;28;20248;-86
2023/10/21 02:17:41;;;;;;;27.08;19.08;;;9.00;99.90;;;;;;5049183;28;20218;-90
2023/10/21 02:20:07;;;;;;;30.27;19.50;;;9.10;99.90;;;;;;5049152;28;20190;-82
2023/10/21 02:22:33;;;;;;;30.63;20.10;;;9.00;99.90;;;;;;5052369;28;20628;-89
2023/10/21 02:24:59;;;;;;;33.05;19.88;;;9.00;99.90;;;;;;5018512;28;20190;-85
2023/10/21 02:27:24;;;;;;;29.80;20.35;;;8.90;99.90;;;;;;5015524;28;20215;-88
2023/10/21 02:29:50;;;;;;;31.70;20.63;;;9.00;99.90;;;;;;5048902;28;20269;-91
2023/10/21 02:32:16;;;;;;;28.52;19.92;;;9.00;99.90;;;;;;5025154;28;20202;-87
2023/10/21 02:34:44;;;;;;;33.58;20.23;;;9.00;99.90;;;;;;5017020;28;20524;-88
2023/10/21 02:37:10;;;;;;;29.73;19.73;;;9.00;99.90;;;;;;5050645;28;20277;-92
2023/10/21 02:39:35;;;;;;;34.50;20.40;;;9.00;99.90;;;;;;5030146;28;20277;-91
2023/10/21 02:42:01;;;;;;;34.55;20.02;;;9.00;99.90;;;;;;5024181;28;20186;-91
2023/10/21 02:44:27;;;;;;;35.77;20.90;;;9.00;99.90;;;;;;5048792;28;20193;-80
2023/10/21 02:46:52;;;;;;;33.15;20.90;;;9.00;99.90;;;;;;5016883;28;20207;-87
2023/10/21 02:49:18;;;;;;;27.85;19.75;;;9.00;99.90;;;;;;5016626;28;20187;-89
2023/10/21 02:51:44;;;;;;;34.00;21.27;;;9.00;99.90;;;;;;5052036;28;20198;-84
2023/10/21 02:54:11;;;;;;;31.13;20.38;;;9.00;99.90;;;;;;5028334;28;20183;-88
2023/10/21 02:56:39;;;;;;;32.07;20.83;;;9.00;99.90;;;;;;5026844;28;20218;-81
2023/10/21 02:59:04;;;;;;;34.40;21.63;;;9.00;99.90;;;;;;5035164;28;20190;-89
2023/10/21 03:01:30;;;;;;;36.00;20.83;;;9.00;99.90;;;;;;5047852;28;20195;-79
2023/10/21 03:03:57;;;;;;;29.45;20.55;;;9.00;99.90;;;;;;5015938;28;20187;-91
2023/10/21 03:06:23;;;;;;;30.13;19.60;;;9.00;99.90;;;;;;5015622;28;20257;-80
2023/10/21 03:08:48;;;;;;;30.10;19.55;;;9.00;99.90;;;;;;5015596;28;20183;-79
2023/10/21 03:11:15;;;;;;;31.08;20.02;;;9.00;99.90;;;;;;5048950;28;20231;-80
2023/10/21 03:13:41;;;;;;;29.00;19.48;;;9.00;99.90;;;;;;5019401;28;20240;-80
2023/10/21 03:16:08;;;;;;;29.88;20.25;;;9.00;99.90;;;;;;5046207;28;20198;-79
2023/10/21 03:18:35;;;;;;;24.92;18.90;;;9.00;99.90;;;;;;5015452;28;20187;-81
2023/10/21 03:21:01;;;;;;;30.05;20.38;;;9.00;99.90;;;;;;5047253;28;20186;-80
2023/10/21 03:23:27;;;;;;;29.77;18.73;;;9.10;99.90;;;;;;5046916;28;20187;-80
2023/10/21 03:25:54;;;;;;;27.40;19.80;;;9.00;99.90;;;;;;5046904;28;20324;-79
2023/10/21 03:28:20;;;;;;;24.75;18.17;;;9.00;99.90;;;;;;5046536;28;20191;-79
2023/10/21 03:30:47;;;;;;;28.13;18.38;;;9.10;99.90;;;;;;5015514;28;20583;-80
2023/10/21 03:33:13;;;;;;;24.23;18.23;;;9.10;99.90;;;;;;5046898;28;20202;-81
2023/10/21 03:35:39;;;;;;;25.30;17.65;;;9.10;99.90;;;;;;5046819;28;20246;-78
2023/10/21 03:38:04;;;;;;;24.10;17.45;;;9.10;99.90;;;;;;5046861;28;20626;-79
2023/10/21 03:40:30;;;;;;;22.73;17.35;;;9.10;99.90;;;;;;5019658;28;20186;-78
2023/10/21 03:42:56;;;;;;;24.58;17.08;;;9.10;99.90;;;;;;5025699;28;20262;-79
2023/10/21 03:45:22;;;;;;;28.10;18.10;;;9.10;99.90;;;;;;5013504;28;20187;-80
2023/10/21 03:47:48;;;;;;;23.00;16.60;;;9.10;99.90;;;;;;5046698;28;20187;-80
2023/10/21 03:50:14;;;;;;;20.23;16.00;;;9.10;99.90;;;;;;5046654;28;20210;-79
2023/10/21 03:52:40;;;;;;;23.02;17.42;;;9.20;99.90;;;;;;5046756;28;20237;-80
2023/10/21 03:55:06;;;;;;;22.02;17.13;;;9.10;99.90;;;;;;5047850;28;20194;-80
2023/10/21 03:57:32;;;;;;;22.90;17.77;;;9.20;99.90;;;;;;5020300;28;20183;-81
2023/10/21 04:00:00;;;;;;;22.17;16.55;;;9.20;99.90;;;;;;5046478;28;20194;-81
2023/10/21 04:02:26;;;;;;;21.05;15.52;;;9.20;99.90;;;;;;5046354;28;20194;-80
2023/10/21 04:04:51;;;;;;;25.02;17.70;;;9.10;99.90;;;;;;5046280;28;20183;-79
2023/10/21 04:07:17;;;;;;;24.15;17.50;;;9.10;99.90;;;;;;5014417;28;20218;-80
2023/10/21 04:09:43;;;;;;;26.90;17.75;;;9.10;99.90;;;;;;5014434;28;20225;-79
2023/10/21 04:12:09;;;;;;;22.23;16.90;;;9.10;99.90;;;;;;5021472;28;20226;-80
2023/10/21 04:14:36;;;;;;;23.13;17.25;;;9.10;99.90;;;;;;5046276;28;20190;-80
2023/10/21 04:17:02;;;;;;;23.80;17.17;;;9.20;99.90;;;;;;5014477;28;20183;-80
2023/10/21 04:19:27;;;;;;;22.20;16.98;;;9.20;99.90;;;;;;5014520;28;20201;-80
2023/10/21 04:21:56;;;;;;;24.50;17.30;;;9.20;99.90;;;;;;5014356;28;20229;-80
2023/10/21 04:24:22;;;;;;;26.48;17.45;;;9.20;99.90;;;;;;5025749;28;20214;-79
2023/10/21 04:26:48;;;;;;;20.83;16.20;;;9.20;99.90;;;;;;5045258;28;20271;-80
2023/10/21 04:29:15;;;;;;;22.30;16.73;;;9.20;99.90;;;;;;5046229;28;20689;-80
2023/10/21 04:31:41;;;;;;;23.05;16.85;;;9.30;99.90;;;;;;5046443;28;20187;-82
2023/10/21 04:34:07;;;;;;;21.90;17.30;;;9.30;99.90;;;;;;5045959;28;20645;-81
2023/10/21 04:36:33;;;;;;;21.75;16.25;;;9.30;99.90;;;;;;5014338;28;20610;-81
2023/10/21 04:38:59;;;;;;;22.42;17.65;;;9.40;99.90;;;;;;5014113;28;20313;-80
2023/10/21 04:41:25;;;;;;;21.58;16.65;;;9.30;99.90;;;;;;5017556;28;20261;-82
2023/10/21 04:43:50;;;;;;;22.35;17.00;;;9.30;99.90;;;;;;5016716;28;20182;-79
2023/10/21 04:46:17;;;;;;;20.23;17.02;;;9.30;99.90;;;;;;5048745;28;20229;-80
2023/10/21 04:48:43;;;;;;;21.80;16.98;;;9.30;99.90;;;;;;5019084;28;20700;-80
2023/10/21 04:51:09;;;;;;;22.17;16.88;;;9.30;99.90;;;;;;5045847;28;20234;-80
2023/10/21 04:53:34;;;;;;;21.67;16.45;;;9.30;99.90;;;;;;5012690;28;20179;-81
2023/10/21 04:56:02;;;;;;;22.85;17.38;;;9.30;99.90;;;;;;5022813;28;20485;-81
2023/10/21 04:58:28;;;;;;;19.53;16.20;;;9.40;99.90;;;;;;5049138;28;20240;-80
2023/10/21 05:00:53;;;;;;;22.08;17.60;;;9.40;99.90;;;;;;5018012;28;20211;-79
2023/10/21 05:03:20;;;;;;;22.95;17.38;;;9.40;99.90;;;;;;5046012;28;20278;-82
2023/10/21 05:05:46;;;;;;;20.48;16.38;;;9.40;99.90;;;;;;5036137;28;20211;-81
2023/10/21 05:08:12;;;;;;;19.50;16.42;;;9.50;99.90;;;;;;5019834;28;20206;-82
2023/10/21 05:10:38;;;;;;;21.40;16.67;;;9.50;99.90;;;;;;5011486;28;20191;-81
2023/10/21 05:13:04;;;;;;;20.77;16.10;;;9.50;99.90;;;;;;5045313;28;20713;-81
2023/10/21 05:15:31;;;;;;;20.92;16.45;;;9.50;99.90;;;;;;5047717;28;20255;-80
2023/10/21 05:18:00;;;;;;;22.92;16.58;;;9.50;99.90;;;;;;5048269;28;20686;-80
2023/10/21 05:20:26;;;;;;;20.17;15.85;;;9.50;99.90;;;;;;5013965;28;20259;-81
2023/10/21 05:22:52;;;;;;;19.45;15.93;;;9.50;99.90;;;;;;5056533;28;20206;-80
2023/10/21 05:25:19;;;;;;;27.08;16.00;;;9.50;99.90;;;;;;5022656;28;20214;-80
2023/10/21 05:27:45;;;;;;;20.42;15.32;;;9.60;99.90;;;;;;5013869;28;20187;-81
2023/10/21 05:30:12;;;;;;;21.15;15.25;;;9.60;99.90;;;;;;5045472;28;20183;-80
2023/10/21 05:32:38;;;;;;;19.20;15.27;;;9.60;99.90;;;;;;5045735;28;20195;-80
2023/10/21 05:35:07;;;;;;;18.75;15.23;;;9.60;99.90;;;;;;5045549;28;20508;-82
2023/10/21 05:37:35;;;;;;;19.38;14.82;;;9.60;99.90;;;;;;5020610;28;20648;-81
2023/10/21 05:40:05;;;;;;;19.23;15.23;;;9.60;99.90;;;;;;5047625;28;20195;-80
2023/10/21 05:42:31;;;;;;;19.42;15.07;;;9.60;99.90;;;;;;5049098;28;20266;-80
2023/10/21 05:44:57;;;;;;;18.38;14.75;;;9.60;99.90;;;;;;5025432;28;20625;-79
2023/10/21 05:47:23;;;;;;;20.10;15.80;;;9.60;99.90;;;;;;5052139;28;20226;-80
2023/10/21 05:49:49;;;;;;;18.30;14.80;;;9.60;99.90;;;;;;5040226;28;20273;-82
2023/10/21 05:52:14;;;;;;;17.75;14.52;;;9.50;99.90;;;;;;5017929;28;20265;-81
2023/10/21 05:54:41;;;;;;;18.85;15.23;;;9.60;99.90;;;;;;5023078;28;20179;-81
2023/10/21 05:57:07;;;;;;;18.73;15.65;;;9.60;99.90;;;;;;5044144;28;20193;-82
2023/10/21 05:59:33;;;;;;;23.27;15.25;;;9.60;99.90;;;;;;5017280;28;20194;-82
2023/10/21 06:01:59;;;;;;;18.52;14.70;;;9.60;99.90;;;;;;5048743;28;20187;-81
2023/10/21 06:04:24;;;;;;;17.98;14.23;;;9.60;99.90;;;;;;5016749;28;20187;-80
2023/10/21 06:06:54;;;;;;;19.98;14.70;;;9.60;99.90;;;;;;5048399;28;20261;-80
2023/10/21 06:09:25;;;;;;;18.92;15.32;;;9.70;99.90;;;;;;5048330;28;20198;-81
2023/10/21 06:11:51;;;;;;;21.27;15.30;;;9.70;99.90;;;;;;5023315;28;20305;-81
2023/10/21 06:14:17;;;;;;;17.95;14.65;;;9.70;99.90;;;;;;5015586;28;20530;-86
2023/10/21 06:16:44;;;;;;;17.45;14.77;;;9.70;99.90;;;;;;5016556;28;20198;-81
2023/10/21 06:19:10;;;;;;;19.00;13.52;;;9.70;99.90;;;;;;5050063;28;20595;-79
2023/10/21 06:21:37;;;;;;;18.95;14.18;;;9.80;99.90;;;;;;5021504;28;20195;-80
2023/10/21 06:24:06;;;;;;;18.38;14.82;;;9.80;99.90;;;;;;5048242;28;20233;-80
2023/10/21 06:26:32;;;;;;;17.08;14.27;;;9.80;99.90;;;;;;5016178;28;20207;-80
2023/10/21 06:28:58;;;;;;;18.77;14.30;;;9.80;99.90;;;;;;5016287;28;20261;-80
2023/10/21 06:31:24;;;;;;;21.08;14.88;;;9.80;99.90;;;;;;5024101;28;20187;-81
2023/10/21 06:33:50;;;;;;;19.70;14.75;;;9.80;99.90;;;;;;5016294;28;20523;-81
2023/10/21 06:36:16;;;;;;;22.13;15.80;;;9.80;99.90;;;;;;5047908;28;20225;-81
2023/10/21 06:38:42;;;;;;;19.50;15.43;;;9.80;99.90;;;;;;5024492;28;20649;-80
2023/10/21 06:41:10;;;;;;;22.05;16.25;;;9.90;99.90;;;;;;5017074;28;20195;-82
2023/10/21 06:43:36;;;;;;;24.52;16.00;;;9.80;99.90;;;;;;5050579;28;20186;-81
2023/10/21 06:46:02;;;;;;;20.70;15.80;;;9.90;99.90;;;;;;5018253;28;20243;-79
2023/10/21 06:48:31;;;;;;;22.70;16.55;;;9.90;99.90;;;;;;5015932;28;20219;-79
2023/10/21 06:50:58;;;;;;;20.80;16.08;;;9.90;99.90;;;;;;5047794;28;20280;-79
2023/10/21 06:53:25;;;;;;;22.80;16.48;;;10.00;99.90;;;;;;5047846;28;20191;-80
2023/10/21 06:55:50;;;;;;;23.55;17.17;;;10.00;99.90;;;;;;5047586;28;20630;-80
2023/10/21 06:58:16;;;;;;;21.50;16.08;;;9.90;99.90;;;;;;5047315;28;20209;-80
2023/10/21 07:00:42;;;;;;;22.98;16.92;;;9.90;99.90;;;;;;5047423;28;20269;-80
2023/10/21 07:03:08;;;;;;;23.02;17.52;;;9.90;99.90;;;;;;5015493;28;20211;-79
2023/10/21 07:05:35;;;;;;;25.33;17.08;;;10.00;99.90;;;;;;5047276;28;20187;-80
2023/10/21 07:08:01;;;;;;;22.58;17.15;;;10.00;99.90;;;;;;5015543;28;20182;-80
2023/10/21 07:10:30;;;;;;;23.58;17.35;;;10.00;99.90;;;;;;5047264;28;20222;-81
2023/10/21 07:12:57;;;;;;;24.35;17.75;;;10.00;99.90;;;;;;5058591;28;20231;-79
2023/10/21 07:15:31;;;;;;;25.40;17.65;;;10.10;99.90;;;;;;5015197;28;20187;-79
2023/10/21 07:17:57;;;;;;;23.45;17.08;;;10.10;99.90;;;;;;5047110;28;20552;-80
2023/10/21 07:20:25;;;;;;;22.52;17.02;;;10.20;99.90;;;;;;5014135;28;20529;-82
2023/10/21 07:22:52;;;;;;;23.08;17.00;;;10.20;99.90;;;;;;5013962;28;20187;-80
2023/10/21 07:25:18;;;;;;;24.13;17.95;;;10.20;99.90;;;;;;5046990;28;20195;-81
2023/10/21 07:27:45;;;;;;;25.55;17.55;;;10.30;99.90;;;;;;5014861;28;20226;-80
2023/10/21 07:30:11;;;;;;;24.45;17.08;;;10.30;99.90;;;;;;5046681;28;20194;-79
2023/10/21 07:32:37;;;;;;;23.70;18.13;;;10.30;99.90;;;;;;5015112;28;20187;-79
2023/10/21 07:35:03;;;;;;;26.60;18.10;;;10.30;99.90;;;;;;5046782;28;20621;-81
2023/10/21 07:37:30;;;;;;;26.08;17.95;;;10.30;99.90;;;;;;5046593;28;20187;-80
2023/10/21 07:40:00;;;;;;;26.63;18.40;;;10.30;99.90;;;;;;5046779;28;20218;-80
2023/10/21 07:42:26;;;;;;;24.58;17.23;;;10.40;99.90;;;;;;5021040;28;20191;-80
2023/10/21 07:44:53;;;;;;;27.98;17.63;;;10.40;99.90;;;;;;5046558;28;20222;-80
2023/10/21 07:47:20;;;;;;;26.50;18.00;;;10.50;99.90;;;;;;5018292;28;20203;-79
2023/10/21 07:49:47;;;;;;;26.67;18.10;;;10.50;99.90;;;;;;5018792;28;20207;-79
2023/10/21 07:52:13;;;;;;;26.88;18.27;;;10.50;99.90;;;;;;5022521;28;20614;-79
2023/10/21 07:54:39;;;;;;;25.70;18.88;;;10.60;99.90;;;;;;5023867;28;20233;-81
2023/10/21 07:57:05;;;;;;;27.30;18.67;;;10.70;99.90;;;;;;5014093;28;20183;-79
2023/10/21 07:59:31;;;;;;;26.90;19.48;;;10.70;99.90;;;;;;5014476;28;20176;-79
2023/10/21 08:01:57;;;;;;;26.55;18.63;;;10.70;99.90;;;;;;5022319;28;20178;-79
2023/10/21 08:04:23;;;;;;;25.98;18.42;;;10.80;99.90;;;;;;5046335;28;20179;-81
2023/10/21 08:06:49;;;;;;;24.10;17.13;;;10.80;99.90;;;;;;5013043;28;20314;-80
2023/10/21 08:09:17;;;;;;;27.63;19.27;;;10.70;99.90;;;;;;5014381;28;20184;-80
2023/10/21 08:11:44;;;;;;;24.95;18.48;;;10.80;99.90;;;;;;5049160;28;20287;-80
2023/10/21 08:14:11;;;;;;;27.45;18.55;;;10.80;99.90;;;;;;5017461;28;20183;-80
2023/10/21 08:16:36;;;;;;;25.63;16.42;;;10.80;99.90;;;;;;5020480;28;20309;-80
2023/10/21 08:19:05;;;;;;;23.95;17.27;;;10.80;99.90;;;;;;5014245;28;20222;-79
2023/10/21 08:21:33;;;;;;;30.45;18.50;;;10.80;99.90;;;;;;5046060;28;20622;-80
2023/10/21 08:24:07;;;;;;;28.42;18.52;;;10.80;99.90;;;;;;5045860;28;20182;-80
2023/10/21 08:26:33;;;;;;;26.55;16.50;;;10.80;99.90;;;;;;5012978;28;20654;-80
2023/10/21 08:28:59;;;;;;;26.52;17.05;;;10.80;99.90;;;;;;5013912;28;20179;-79
2023/10/21 08:31:25;;;;;;;23.00;16.02;;;10.90;99.90;;;;;;5014294;28;20511;-80
2023/10/21 08:33:52;;;;;;;25.48;16.60;;;10.90;99.90;;;;;;5045998;28;20179;-83
2023/10/21 08:36:20;;;;;;;23.60;16.25;;;10.90;99.90;;;;;;5044750;28;20190;-81
2023/10/21 08:38:50;;;;;;;21.13;15.32;;;11.00;99.90;;;;;;5045477;28;20183;-80
2023/10/21 08:41:16;;;;;;;22.45;15.40;;;11.00;99.90;;;;;;5016163;28;20648;-81
2023/10/21 08:43:49;;;;;;;24.85;16.10;;;11.00;99.90;;;;;;5018091;28;20206;-81
2023/10/21 08:46:16;;;;;;;21.77;15.00;;;11.10;99.90;;;;;;5045607;28;20207;-80
2023/10/21 08:48:48;;;;;;;22.95;15.60;;;11.20;99.90;;;;;;5014109;28;20198;-81
2023/10/21 08:51:25;;;;;;;24.08;15.82;;;11.20;99.90;;;;;;5045706;28;20214;-81
2023/10/21 08:54:05;;;;;;;24.77;14.73;;;11.30;99.90;;;;;;5045758;28;20203;-79
2023/10/21 08:56:33;;;;;;;21.85;14.85;;;11.40;99.90;;;;;;5012746;28;20187;-80
2023/10/21 08:59:00;;;;;;;27.13;16.65;;;11.40;99.90;;;;;;5013615;28;20203;-78
2023/10/21 09:01:26;;;;;;;24.75;15.38;;;11.50;99.90;;;;;;5017653;28;20220;-81
2023/10/21 09:03:52;;;;;;;20.38;13.93;;;11.60;99.90;;;;;;5017932;28;20564;-81
2023/10/21 09:06:18;;;;;;;17.95;12.80;;;11.60;99.90;;;;;;5045464;28;20210;-80
2023/10/21 09:08:47;;;;;;;16.50;12.05;;;11.70;99.90;;;;;;5013926;28;20190;-79
2023/10/21 09:11:16;;;;;;;16.13;10.93;;;11.80;99.90;;;;;;5023195;28;20730;-81
2023/10/21 09:13:42;;;;;;;12.50;9.68;;;11.90;99.90;;;;;;5028089;28;20229;-79
2023/10/21 09:16:19;;;;;;;16.02;10.45;;;12.00;99.90;;;;;;5019603;28;20217;-79
2023/10/21 09:19:05;;;;;;;12.65;9.63;;;12.20;99.90;;;;;;5048548;28;20185;-79
2023/10/21 09:21:42;;;;;;;12.35;9.43;;;12.30;99.90;;;;;;5024905;28;20178;-80
2023/10/21 09:24:12;;;;;;;11.73;8.75;;;12.40;99.90;;;;;;5021576;28;20183;-79
2023/10/21 09:26:48;;;;;;;11.98;7.93;;;12.40;99.90;;;;;;5022689;28;20728;-81
2023/10/21 09:29:19;;;;;;;8.45;6.63;;;12.40;99.90;;;;;;5024736;28;20547;-81
2023/10/21 09:31:53;;;;;;;10.40;7.22;;;12.50;99.90;;;;;;5018445;28;20183;-80
2023/10/21 09:34:27;;;;;;;10.10;6.30;;;12.50;99.90;;;;;;5048074;28;20712;-81
2023/10/21 09:36:59;;;;;;;7.90;5.72;;;12.60;99.90;;;;;;5044246;28;20194;-81
2023/10/21 09:39:36;;;;;;;7.40;5.22;;;12.80;99.90;;;;;;5022155;28;20512;-80
2023/10/21 09:42:04;;;;;;;7.35;4.68;;;12.80;99.90;;;;;;5052165;28;20504;-80
2023/10/21 09:44:31;;;;;;;8.52;5.28;;;12.90;99.90;;;;;;5032638;28;20178;-82
2023/10/21 09:46:58;;;;;;;6.35;4.13;;;13.10;99.90;;;;;;5024765;28;20299;-84
2023/10/21 09:49:26;;;;;;;6.72;3.95;;;13.20;99.90;;;;;;5024013;28;20630;-82
2023/10/21 09:52:09;;;;;;;5.15;3.50;;;13.40;99.90;;;;;;5049020;28;20313;-81
2023/10/21 09:55:00;;;;;;;3.60;2.80;;;13.60;99.90;;;;;;5019235;28;20178;-82
2023/10/21 09:57:26;;;;;;;2.58;2.35;;;13.70;99.90;;;;;;5023715;28;20179;-82
2023/10/21 09:59:53;;;;;;;2.30;1.90;;;13.80;99.90;;;;;;5019664;28;20171;-82
2023/10/21 10:02:20;;;;;;;6.40;2.13;;;13.80;99.90;;;;;;5048349;28;20186;-80
2023/10/21 10:04:46;;;;;;;2.30;1.65;;;13.90;99.90;;;;;;5016999;28;20203;-80
2023/10/21 10:07:13;;;;;;;2.53;1.40;;;13.90;99.90;;;;;;5048548;28;20346;-82
2023/10/21 10:09:40;;;;;;;2.08;1.40;;;14.10;99.90;;;;;;5024270;28;20179;-81
2023/10/21 10:12:16;;;;;;;2.95;1.23;;;14.10;99.90;;;;;;5050379;28;20257;-81
2023/10/21 10:14:43;;;;;;;2.50;1.23;;;14.10;99.90;;;;;;5048427;28;20183;-81
2023/10/21 10:17:09;;;;;;;1.75;1.10;;;14.20;99.90;;;;;;5047449;28;20186;-81
2023/10/21 10:19:42;;;;;;;1.80;0.90;;;14.30;99.90;;;;;;5048831;28;20179;-80
2023/10/21 10:22:31;;;;;;;1.92;0.90;;;14.40;99.90;;;;;;5046993;28;20602;-82
2023/10/21 10:25:15;;;;;;;4.47;0.82;;;14.40;99.90;;;;;;5033378;28;20265;-83
2023/10/21 10:27:42;;;;;;;1.65;0.80;;;14.40;99.90;;;;;;5025510;28;20259;-80
2023/10/21 10:30:15;;;;;;;2.63;0.70;;;14.40;99.90;;;;;;5033495;28;20276;-82
2023/10/21 10:32:43;;;;;;;3.65;0.90;;;14.30;99.90;;;;;;5029713;28;20493;-82
2023/10/21 10:35:27;;;;;;;2.28;0.90;;;14.30;99.90;;;;;;5017732;28;20622;-81
2023/10/21 10:37:52;;;;;;;2.90;0.68;;;14.30;99.90;;;;;;5047666;28;20202;-81
2023/10/21 10:40:19;;;;;;;1.70;0.77;;;14.30;99.90;;;;;;5047503;28;20175;-85
2023/10/21 10:42:45;;;;;;;1.33;0.55;;;14.20;99.90;;;;;;5034673;28;20209;-81
2023/10/21 10:45:11;;;;;;;2.50;1.10;;;14.30;99.90;;;;;;5024101;28;20236;-82
2023/10/21 10:47:40;;;;;;;3.00;1.00;;;14.50;99.90;;;;;;5015290;28;20215;-83
2023/10/21 10:50:19;;;;;;;2.83;0.80;;;14.60;99.90;;;;;;5048079;28;20183;-82
2023/10/21 10:52:46;;;;;;;2.00;0.80;;;14.80;99.90;;;;;;5026831;28;20175;-83
2023/10/21 10:55:12;;;;;;;1.65;0.60;;;14.90;99.90;;;;;;5027698;28;20179;-81
2023/10/21 10:57:37;;;;;;;1.40;0.60;;;15.00;99.90;;;;;;5030313;28;20233;-80
2023/10/21 11:00:10;;;;;;;2.50;0.70;;;15.20;99.90;;;;;;5022299;28;20345;-82
2023/10/21 11:02:44;;;;;;;2.28;0.60;;;15.30;99.90;;;;;;5027135;28;20178;-81
2023/10/21 11:05:20;;;;;;;1.73;0.50;;;15.40;99.90;;;;;;5023832;28;20235;-82
2023/10/21 11:07:47;;;;;;;2.45;0.65;;;15.50;99.90;;;;;;5027428;28;20205;-83
2023/10/21 11:10:18;;;;;;;2.90;0.93;;;15.50;99.90;;;;;;5026160;28;20236;-81
2023/10/21 11:12:44;;;;;;;1.42;0.52;;;15.60;99.90;;;;;;5029221;28;20276;-83
2023/10/21 11:15:12;;;;;;;1.02;0.50;;;15.60;99.90;;;;;;5022352;28;20187;-80
2023/10/21 11:17:39;;;;;;;1.20;0.40;;;15.70;99.90;;;;;;5022808;28;20229;-82
2023/10/21 11:20:07;;;;;;;1.17;0.50;;;15.70;99.90;;;;;;5028063;28;20178;-80
2023/10/21 11:22:33;;;;;;;1.60;0.40;;;15.80;99.90;;;;;;5047107;28;20648;-81
2023/10/21 11:24:59;;;;;;;2.50;0.50;;;15.80;99.90;;;;;;5021610;28;20567;-79
2023/10/21 11:27:26;;;;;;;1.85;0.40;;;15.80;99.90;;;;;;5023801;28;20230;-82
2023/10/21 11:29:52;;;;;;;2.50;0.50;;;15.80;99.90;;;;;;5017439;28;20176;-80
2023/10/21 11:32:36;;;;;;;1.02;0.32;;;15.90;99.90;;;;;;5022567;28;20529;-79
2023/10/21 11:35:13;;;;;;;1.27;0.40;;;15.90;99.90;;;;;;5026493;28;20578;-81
2023/10/21 11:37:39;;;;;;;0.82;0.40;;;16.00;99.90;;;;;;5031208;28;20252;-80
2023/10/21 11:40:10;;;;;;;0.90;0.38;;;16.10;99.90;;;;;;5015094;28;20599;-83
2023/10/21 11:42:37;;;;;;;0.68;0.40;;;16.30;99.90;;;;;;5046377;28;20179;-82
2023/10/21 11:45:03;;;;;;;3.28;0.60;;;16.50;99.90;;;;;;5014795;28;20175;-82
2023/10/21 11:47:30;;;;;;;1.85;0.60;;;16.60;99.90;;;;;;5018439;28;20214;-80
2023/10/21 11:49:57;;;;;;;0.77;0.40;;;16.60;99.90;;;;;;5031282;28;20179;-81
2023/10/21 11:52:27;;;;;;;0.75;0.40;;;16.50;99.90;;;;;;5019238;28;20218;-81
2023/10/21 12:01:20;;;;;;;1.95;0.40;;;16.20;99.90;;;;;;5019990;28;20186;-80
2023/10/21 12:19:40;;;;;;;0.45;0.30;;;16.40;99.90;;;;;;5031420;28;20269;-80
2023/10/21 12:40:32;;;;;;;0.55;0.20;;;16.80;99.90;;;;;;5018322;28;20196;-80
2023/10/21 12:45:47;;;;;;;0.55;0.20;;;17.20;99.90;;;;;;5024602;28;20190;-80
2023/10/21 12:48:17;;;;;;;0.22;0.20;;;17.20;99.90;;;;;;5016765;28;20222;-83
2023/10/21 12:50:43;;;;;;;0.55;0.30;;;17.20;99.90;;;;;;5052324;28;20532;-81
2023/10/21 12:53:10;;;;;;;1.00;0.40;;;17.20;99.90;;;;;;5028381;28;20522;-82
2023/10/21 12:55:37;;;;;;;1.85;0.32;;;17.20;99.90;;;;;;5028390;28;20179;-83
2023/10/21 12:58:04;;;;;;;0.93;0.30;;;17.20;99.90;;;;;;5050249;28;20189;-81
2023/10/21 13:00:31;;;;;;;2.05;0.20;;;17.30;99.90;;;;;;5051254;28;20236;-81
2023/10/21 13:02:57;;;;;;;0.43;0.22;;;17.30;99.90;;;;;;5033525;28;20283;-80
2023/10/21 13:05:23;;;;;;;1.05;0.28;;;17.20;99.90;;;;;;5020659;28;20269;-80
2023/10/21 13:07:49;;;;;;;0.20;0.20;;;17.20;99.90;;;;;;5017705;28;20218;-80
2023/10/21 13:10:15;;;;;;;0.55;0.20;;;17.30;99.90;;;;;;5017249;28;20217;-80
2023/10/21 13:12:41;;;;;;;0.30;0.20;;;17.40;99.90;;;;;;5017978;28;20230;-82
2023/10/21 13:15:13;;;;;;;0.60;0.32;;;17.60;99.90;;;;;;5019483;28;20190;-81
2023/10/21 13:17:40;;;;;;;1.92;0.40;;;17.60;99.90;;;;;;5024423;28;20228;-82
2023/10/21 13:20:16;;;;;;;1.13;0.43;;;17.60;99.90;;;;;;5021176;28;20209;-81
2023/10/21 13:22:45;;;;;;;3.65;0.30;;;17.70;99.90;;;;;;5013437;28;20187;-83